Hauptseite
METAR-TAF:

METAR-TAF

Flughäfen :

Guilin, China

Flughafen Guilin-Liangjiang

Breite: 25-20N, Länge: 110-18E, Höhe: 166 m

Beobachtung

Neuester Wetterbericht von vor 1 Stunde und 4 Minuten, um 13:00 UTC
Wind 8 kt aus Nord/Nordost
Temperatur 20°C
Luftfeuchtigkeit 64%
Luftdruck 1017 hPa
Sichtweite 10 km oder mehr
Aufgelockert bewölkt in der Höhe von 3600 ft
Geschlossene Wolkendecke in der Höhe von 6600 ft

METAR: ZGKL 201300Z 03004MPS 9999 SCT036 OVC066 20/13 Q1017 NOSIG

Zeit: 22:04 (14:04 UTC)

Prognose

Neuester Wetterbericht von vor 4 Stunden und 55 Minuten, um 09:09 UTC
Gültige Prognose vom 20 um 12 UTC bis 21 um 12 UTC
Wind 8 kt aus Nordost
Sichtweite 10 km oder mehr
Aufgelockert bewölkt in der Höhe von 3300 ft
Geschlossene Wolkendecke in der Höhe von 5000 ft

TAF: ZGKL 200909Z 2012/2112 05004MPS 9999 SCT033 OVC050 TX25/2108Z TN18/2022Z

Wetterbeobachtungen und Prognosen von mehr als 4000 Flughäfen (METAR und TAF Bericht).

Die verfügbaren Stationen werden durch gelbe und rote Markierungen auf der Karte dargestellt.

Führen Sie die Maus auf sie, um den Namen der Station zu sehen.

Darauf klicken, um die Beobachtung von Wetterbeobachtungen und Prognosen zu sehen.

Um die Karte zu ändern : klicken Sie auf den grünen Tasten mit einem schwarzen Kreuz Zum Vergrößern, auf den grünen Button mit einem Gedankenstrich zu verkleinern, oder auf die grünen Pfeile für benachbarte Karten.


METAR-TAF: